sensor_id;sensor_type;location;lat;lon;timestamp;P1;durP1;ratioP1;P2;durP2;ratioP2
55346;SDS011;41218;55.700;38.270;2023-04-30T00:01:57;12.60;;;7.00;;
55346;SDS011;41218;55.700;38.270;2023-04-30T00:06:57;16.00;;;7.93;;
55346;SDS011;41218;55.700;38.270;2023-04-30T00:11:58;12.17;;;6.60;;
55346;SDS011;41218;55.700;38.270;2023-04-30T00:16:58;17.17;;;8.30;;
55346;SDS011;41218;55.700;38.270;2023-04-30T00:21:59;14.60;;;7.57;;
55346;SDS011;41218;55.700;38.270;2023-04-30T00:27:04;15.45;;;7.82;;
55346;SDS011;41218;55.700;38.270;2023-04-30T00:32:04;17.07;;;8.30;;
55346;SDS011;41218;55.700;38.270;2023-04-30T00:37:05;16.73;;;7.87;;
55346;SDS011;41218;55.700;38.270;2023-04-30T00:42:05;15.40;;;7.03;;
55346;SDS011;41218;55.700;38.270;2023-04-30T00:47:06;17.37;;;7.83;;
55346;SDS011;41218;55.700;38.270;2023-04-30T00:52:06;16.73;;;8.07;;
55346;SDS011;41218;55.700;38.270;2023-04-30T00:57:08;20.07;;;8.73;;
55346;SDS011;41218;55.700;38.270;2023-04-30T01:02:12;18.92;;;8.30;;
55346;SDS011;41218;55.700;38.270;2023-04-30T01:07:14;16.08;;;8.30;;
55346;SDS011;41218;55.700;38.270;2023-04-30T01:12:25;17.70;;;8.60;;
55346;SDS011;41218;55.700;38.270;2023-04-30T01:22:41;21.23;;;9.27;;
55346;SDS011;41218;55.700;38.270;2023-04-30T01:33:00;26.55;;;11.73;;
55346;SDS011;41218;55.700;38.270;2023-04-30T01:49:05;22.27;;;10.00;;
55346;SDS011;41218;55.700;38.270;2023-04-30T01:54:32;24.00;;;10.95;;
55346;SDS011;41218;55.700;38.270;2023-04-30T01:59:42;24.73;;;10.65;;
55346;SDS011;41218;55.700;38.270;2023-04-30T02:04:44;20.67;;;10.20;;
55346;SDS011;41218;55.700;38.270;2023-04-30T02:09:44;22.80;;;9.88;;
55346;SDS011;41218;55.700;38.270;2023-04-30T02:14:45;24.53;;;11.10;;
55346;SDS011;41218;55.700;38.270;2023-04-30T02:19:45;21.33;;;10.87;;
55346;SDS011;41218;55.700;38.270;2023-04-30T02:24:46;21.60;;;9.97;;
55346;SDS011;41218;55.700;38.270;2023-04-30T02:29:46;24.20;;;10.20;;
55346;SDS011;41218;55.700;38.270;2023-04-30T02:34:47;23.40;;;10.30;;
55346;SDS011;41218;55.700;38.270;2023-04-30T02:39:48;25.00;;;10.23;;
55346;SDS011;41218;55.700;38.270;2023-04-30T02:44:48;18.37;;;9.57;;
55346;SDS011;41218;55.700;38.270;2023-04-30T02:49:49;21.03;;;10.30;;
55346;SDS011;41218;55.700;38.270;2023-04-30T02:54:49;26.20;;;10.67;;
55346;SDS011;41218;55.700;38.270;2023-04-30T02:59:50;22.60;;;10.67;;
55346;SDS011;41218;55.700;38.270;2023-04-30T03:04:50;21.40;;;10.80;;
55346;SDS011;41218;55.700;38.270;2023-04-30T03:09:51;25.20;;;10.83;;
55346;SDS011;41218;55.700;38.270;2023-04-30T03:14:51;24.60;;;11.03;;
55346;SDS011;41218;55.700;38.270;2023-04-30T03:19:52;25.83;;;10.43;;
55346;SDS011;41218;55.700;38.270;2023-04-30T03:24:52;20.37;;;10.90;;
55346;SDS011;41218;55.700;38.270;2023-04-30T03:29:53;22.20;;;10.77;;
55346;SDS011;41218;55.700;38.270;2023-04-30T03:34:53;21.73;;;11.27;;
55346;SDS011;41218;55.700;38.270;2023-04-30T03:39:54;25.73;;;11.27;;
55346;SDS011;41218;55.700;38.270;2023-04-30T03:44:54;26.37;;;11.60;;
55346;SDS011;41218;55.700;38.270;2023-04-30T03:49:55;23.63;;;11.47;;
55346;SDS011;41218;55.700;38.270;2023-04-30T03:54:56;26.23;;;12.07;;
55346;SDS011;41218;55.700;38.270;2023-04-30T03:59:56;27.17;;;11.63;;
55346;SDS011;41218;55.700;38.270;2023-04-30T04:04:57;25.38;;;11.70;;
55346;SDS011;41218;55.700;38.270;2023-04-30T04:09:58;22.70;;;10.43;;
55346;SDS011;41218;55.700;38.270;2023-04-30T04:14:58;26.03;;;10.73;;
55346;SDS011;41218;55.700;38.270;2023-04-30T04:19:59;22.90;;;10.37;;
55346;SDS011;41218;55.700;38.270;2023-04-30T04:24:59;24.00;;;10.83;;
55346;SDS011;41218;55.700;38.270;2023-04-30T04:30:01;23.43;;;11.00;;
55346;SDS011;41218;55.700;38.270;2023-04-30T04:35:02;21.05;;;9.43;;
55346;SDS011;41218;55.700;38.270;2023-04-30T04:40:03;20.83;;;10.40;;
55346;SDS011;41218;55.700;38.270;2023-04-30T04:45:05;23.20;;;10.90;;
55346;SDS011;41218;55.700;38.270;2023-04-30T04:50:07;15.75;;;7.72;;
55346;SDS011;41218;55.700;38.270;2023-04-30T04:55:07;15.90;;;7.70;;
55346;SDS011;41218;55.700;38.270;2023-04-30T05:00:08;11.65;;;6.55;;
55346;SDS011;41218;55.700;38.270;2023-04-30T05:05:10;11.00;;;6.18;;
55346;SDS011;41218;55.700;38.270;2023-04-30T05:10:11;11.10;;;6.07;;
55346;SDS011;41218;55.700;38.270;2023-04-30T05:15:11;14.03;;;6.47;;
55346;SDS011;41218;55.700;38.270;2023-04-30T05:20:12;14.40;;;6.27;;
55346;SDS011;41218;55.700;38.270;2023-04-30T05:25:12;11.77;;;5.60;;
55346;SDS011;41218;55.700;38.270;2023-04-30T05:30:13;11.97;;;6.30;;
55346;SDS011;41218;55.700;38.270;2023-04-30T05:35:17;13.57;;;7.35;;
55346;SDS011;41218;55.700;38.270;2023-04-30T05:40:17;12.65;;;6.53;;
55346;SDS011;41218;55.700;38.270;2023-04-30T05:45:18;11.90;;;5.60;;
55346;SDS011;41218;55.700;38.270;2023-04-30T05:50:19;9.20;;;4.63;;
55346;SDS011;41218;55.700;38.270;2023-04-30T05:55:19;9.17;;;3.50;;
55346;SDS011;41218;55.700;38.270;2023-04-30T06:00:20;6.00;;;3.40;;
55346;SDS011;41218;55.700;38.270;2023-04-30T06:05:20;7.33;;;3.10;;
55346;SDS011;41218;55.700;38.270;2023-04-30T06:10:25;4.28;;;2.40;;
55346;SDS011;41218;55.700;38.270;2023-04-30T06:15:25;4.27;;;2.27;;
55346;SDS011;41218;55.700;38.270;2023-04-30T06:20:26;4.33;;;2.47;;
55346;SDS011;41218;55.700;38.270;2023-04-30T06:25:26;4.37;;;2.47;;
55346;SDS011;41218;55.700;38.270;2023-04-30T06:30:27;4.77;;;2.30;;
55346;SDS011;41218;55.700;38.270;2023-04-30T06:35:29;2.53;;;1.83;;
55346;SDS011;41218;55.700;38.270;2023-04-30T06:40:30;3.77;;;2.30;;
55346;SDS011;41218;55.700;38.270;2023-04-30T06:45:30;3.50;;;2.43;;
55346;SDS011;41218;55.700;38.270;2023-04-30T06:50:31;4.20;;;2.00;;
55346;SDS011;41218;55.700;38.270;2023-04-30T06:55:31;3.17;;;1.80;;
55346;SDS011;41218;55.700;38.270;2023-04-30T07:00:32;3.40;;;1.80;;
55346;SDS011;41218;55.700;38.270;2023-04-30T07:05:39;4.45;;;1.85;;
55346;SDS011;41218;55.700;38.270;2023-04-30T07:10:40;1.88;;;1.50;;
55346;SDS011;41218;55.700;38.270;2023-04-30T07:15:41;2.50;;;1.70;;
55346;SDS011;41218;55.700;38.270;2023-04-30T07:20:41;4.40;;;1.90;;
55346;SDS011;41218;55.700;38.270;2023-04-30T07:25:42;2.37;;;1.50;;
55346;SDS011;41218;55.700;38.270;2023-04-30T07:30:42;2.10;;;1.40;;
55346;SDS011;41218;55.700;38.270;2023-04-30T07:35:43;3.03;;;1.65;;
55346;SDS011;41218;55.700;38.270;2023-04-30T07:40:44;3.10;;;1.67;;
55346;SDS011;41218;55.700;38.270;2023-04-30T07:45:44;2.90;;;1.53;;
55346;SDS011;41218;55.700;38.270;2023-04-30T07:50:48;3.67;;;1.58;;
55346;SDS011;41218;55.700;38.270;2023-04-30T07:55:49;3.15;;;1.60;;
55346;SDS011;41218;55.700;38.270;2023-04-30T08:00:49;3.77;;;1.70;;
55346;SDS011;41218;55.700;38.270;2023-04-30T08:05:51;1.70;;;1.47;;
55346;SDS011;41218;55.700;38.270;2023-04-30T08:10:51;4.35;;;1.50;;
55346;SDS011;41218;55.700;38.270;2023-04-30T08:15:52;2.03;;;1.30;;
55346;SDS011;41218;55.700;38.270;2023-04-30T08:20:52;1.97;;;1.50;;
55346;SDS011;41218;55.700;38.270;2023-04-30T08:25:53;2.13;;;1.17;;
55346;SDS011;41218;55.700;38.270;2023-04-30T08:30:53;6.43;;;1.20;;
55346;SDS011;41218;55.700;38.270;2023-04-30T08:35:54;3.73;;;1.53;;
55346;SDS011;41218;55.700;38.270;2023-04-30T08:40:56;2.87;;;1.20;;
55346;SDS011;41218;55.700;38.270;2023-04-30T08:46:07;4.90;;;1.60;;
55346;SDS011;41218;55.700;38.270;2023-04-30T08:51:08;3.45;;;1.65;;
55346;SDS011;41218;55.700;38.270;2023-04-30T08:56:09;2.40;;;1.50;;
55346;SDS011;41218;55.700;38.270;2023-04-30T09:01:10;3.75;;;1.65;;
55346;SDS011;41218;55.700;38.270;2023-04-30T09:06:14;3.93;;;1.77;;
55346;SDS011;41218;55.700;38.270;2023-04-30T09:11:22;3.60;;;1.70;;
55346;SDS011;41218;55.700;38.270;2023-04-30T09:21:32;4.50;;;2.10;;
55346;SDS011;41218;55.700;38.270;2023-04-30T09:26:35;4.20;;;2.05;;
55346;SDS011;41218;55.700;38.270;2023-04-30T09:31:37;2.22;;;1.52;;
55346;SDS011;41218;55.700;38.270;2023-04-30T09:36:51;2.35;;;1.52;;
55346;SDS011;41218;55.700;38.270;2023-04-30T09:42:05;2.42;;;1.60;;
55346;SDS011;41218;55.700;38.270;2023-04-30T09:47:15;2.75;;;1.88;;
55346;SDS011;41218;55.700;38.270;2023-04-30T09:52:19;2.88;;;1.90;;
55346;SDS011;41218;55.700;38.270;2023-04-30T10:02:22;4.63;;;1.73;;
55346;SDS011;41218;55.700;38.270;2023-04-30T10:07:26;2.50;;;1.45;;
55346;SDS011;41218;55.700;38.270;2023-04-30T10:12:33;3.42;;;2.22;;
55346;SDS011;41218;55.700;38.270;2023-04-30T10:18:39;3.15;;;1.63;;
55346;SDS011;41218;55.700;38.270;2023-04-30T10:23:27;2.33;;;1.65;;
55346;SDS011;41218;55.700;38.270;2023-04-30T10:28:29;2.10;;;1.63;;
55346;SDS011;41218;55.700;38.270;2023-04-30T10:33:33;2.03;;;1.60;;
55346;SDS011;41218;55.700;38.270;2023-04-30T10:38:48;2.63;;;1.90;;
55346;SDS011;41218;55.700;38.270;2023-04-30T10:43:50;2.63;;;1.70;;
55346;SDS011;41218;55.700;38.270;2023-04-30T10:48:55;3.38;;;1.90;;
55346;SDS011;41218;55.700;38.270;2023-04-30T10:53:56;3.22;;;1.88;;
55346;SDS011;41218;55.700;38.270;2023-04-30T10:59:00;2.33;;;1.60;;
55346;SDS011;41218;55.700;38.270;2023-04-30T11:04:04;3.13;;;1.80;;
55346;SDS011;41218;55.700;38.270;2023-04-30T11:09:10;3.08;;;1.70;;
55346;SDS011;41218;55.700;38.270;2023-04-30T11:14:10;3.67;;;2.00;;
55346;SDS011;41218;55.700;38.270;2023-04-30T11:19:12;3.53;;;1.80;;
55346;SDS011;41218;55.700;38.270;2023-04-30T11:29:13;3.50;;;1.80;;
55346;SDS011;41218;55.700;38.270;2023-04-30T11:34:14;4.60;;;1.80;;
55346;SDS011;41218;55.700;38.270;2023-04-30T11:39:16;2.63;;;1.90;;
55346;SDS011;41218;55.700;38.270;2023-04-30T11:49:37;3.60;;;1.92;;
55346;SDS011;41218;55.700;38.270;2023-04-30T11:54:38;3.47;;;2.20;;
55346;SDS011;41218;55.700;38.270;2023-04-30T11:59:39;3.67;;;2.00;;
55346;SDS011;41218;55.700;38.270;2023-04-30T12:04:44;2.53;;;1.52;;
55346;SDS011;41218;55.700;38.270;2023-04-30T12:09:51;2.50;;;1.88;;
55346;SDS011;41218;55.700;38.270;2023-04-30T12:14:55;3.20;;;2.10;;
55346;SDS011;41218;55.700;38.270;2023-04-30T12:19:56;5.97;;;1.90;;
55346;SDS011;41218;55.700;38.270;2023-04-30T12:24:58;4.07;;;2.00;;
55346;SDS011;41218;55.700;38.270;2023-04-30T12:30:05;3.88;;;2.10;;
55346;SDS011;41218;55.700;38.270;2023-04-30T12:35:13;3.73;;;2.40;;
55346;SDS011;41218;55.700;38.270;2023-04-30T12:40:15;2.70;;;2.03;;
55346;SDS011;41218;55.700;38.270;2023-04-30T12:50:46;3.83;;;2.30;;
55346;SDS011;41218;55.700;38.270;2023-04-30T12:56:23;5.25;;;2.40;;
55346;SDS011;41218;55.700;38.270;2023-04-30T13:01:20;3.53;;;2.25;;
55346;SDS011;41218;55.700;38.270;2023-04-30T13:06:23;5.10;;;2.40;;
55346;SDS011;41218;55.700;38.270;2023-04-30T13:11:23;4.60;;;2.30;;
55346;SDS011;41218;55.700;38.270;2023-04-30T13:16:25;5.68;;;2.45;;
55346;SDS011;41218;55.700;38.270;2023-04-30T13:21:25;3.33;;;2.33;;
55346;SDS011;41218;55.700;38.270;2023-04-30T13:31:27;3.87;;;2.53;;
55346;SDS011;41218;55.700;38.270;2023-04-30T13:36:27;5.50;;;2.50;;
55346;SDS011;41218;55.700;38.270;2023-04-30T13:41:28;4.07;;;2.50;;
55346;SDS011;41218;55.700;38.270;2023-04-30T13:46:29;3.37;;;2.40;;
55346;SDS011;41218;55.700;38.270;2023-04-30T13:51:29;5.87;;;3.00;;
55346;SDS011;41218;55.700;38.270;2023-04-30T13:56:30;11.40;;;5.28;;
55346;SDS011;41218;55.700;38.270;2023-04-30T14:01:31;8.30;;;4.37;;
55346;SDS011;41218;55.700;38.270;2023-04-30T14:11:33;6.57;;;3.47;;
55346;SDS011;41218;55.700;38.270;2023-04-30T14:16:33;6.43;;;4.67;;
55346;SDS011;41218;55.700;38.270;2023-04-30T14:21:34;6.03;;;3.30;;
55346;SDS011;41218;55.700;38.270;2023-04-30T14:26:35;13.38;;;6.82;;
55346;SDS011;41218;55.700;38.270;2023-04-30T14:31:35;8.93;;;4.37;;
55346;SDS011;41218;55.700;38.270;2023-04-30T14:36:36;7.87;;;3.50;;
55346;SDS011;41218;55.700;38.270;2023-04-30T14:41:37;5.15;;;3.03;;
55346;SDS011;41218;55.700;38.270;2023-04-30T14:46:37;7.83;;;3.87;;
55346;SDS011;41218;55.700;38.270;2023-04-30T14:51:38;8.90;;;4.03;;
55346;SDS011;41218;55.700;38.270;2023-04-30T14:56:39;11.40;;;3.77;;
55346;SDS011;41218;55.700;38.270;2023-04-30T15:01:40;10.85;;;5.40;;
55346;SDS011;41218;55.700;38.270;2023-04-30T15:06:41;14.50;;;4.50;;
55346;SDS011;41218;55.700;38.270;2023-04-30T15:11:42;11.57;;;5.67;;
55346;SDS011;41218;55.700;38.270;2023-04-30T15:16:42;10.83;;;5.73;;
55346;SDS011;41218;55.700;38.270;2023-04-30T15:21:43;14.17;;;5.10;;
55346;SDS011;41218;55.700;38.270;2023-04-30T15:26:43;8.70;;;4.33;;
55346;SDS011;41218;55.700;38.270;2023-04-30T15:31:44;10.17;;;5.00;;
55346;SDS011;41218;55.700;38.270;2023-04-30T15:36:44;10.43;;;4.47;;
55346;SDS011;41218;55.700;38.270;2023-04-30T15:41:45;16.67;;;6.47;;
55346;SDS011;41218;55.700;38.270;2023-04-30T15:46:45;19.80;;;7.93;;
55346;SDS011;41218;55.700;38.270;2023-04-30T15:51:46;14.48;;;6.53;;
55346;SDS011;41218;55.700;38.270;2023-04-30T15:56:47;10.30;;;4.73;;
55346;SDS011;41218;55.700;38.270;2023-04-30T16:01:48;8.97;;;4.73;;
55346;SDS011;41218;55.700;38.270;2023-04-30T16:06:48;6.97;;;4.03;;
55346;SDS011;41218;55.700;38.270;2023-04-30T16:11:49;9.27;;;4.75;;
55346;SDS011;41218;55.700;38.270;2023-04-30T16:16:50;10.27;;;4.93;;
55346;SDS011;41218;55.700;38.270;2023-04-30T16:21:51;8.05;;;3.95;;
55346;SDS011;41218;55.700;38.270;2023-04-30T16:26:52;10.80;;;4.45;;
55346;SDS011;41218;55.700;38.270;2023-04-30T16:31:52;9.03;;;5.03;;
55346;SDS011;41218;55.700;38.270;2023-04-30T16:36:53;11.30;;;6.07;;
55346;SDS011;41218;55.700;38.270;2023-04-30T16:41:53;9.13;;;4.87;;
55346;SDS011;41218;55.700;38.270;2023-04-30T16:46:54;7.00;;;4.67;;
55346;SDS011;41218;55.700;38.270;2023-04-30T16:51:58;9.70;;;4.90;;
55346;SDS011;41218;55.700;38.270;2023-04-30T16:56:59;7.67;;;4.43;;
55346;SDS011;41218;55.700;38.270;2023-04-30T17:01:59;9.10;;;4.53;;
55346;SDS011;41218;55.700;38.270;2023-04-30T17:07:01;6.75;;;4.00;;
55346;SDS011;41218;55.700;38.270;2023-04-30T17:12:02;8.88;;;4.03;;
55346;SDS011;41218;55.700;38.270;2023-04-30T17:17:04;7.85;;;3.80;;
55346;SDS011;41218;55.700;38.270;2023-04-30T17:22:05;7.80;;;4.28;;
55346;SDS011;41218;55.700;38.270;2023-04-30T17:27:06;6.30;;;3.78;;
55346;SDS011;41218;55.700;38.270;2023-04-30T17:32:07;8.43;;;4.03;;
55346;SDS011;41218;55.700;38.270;2023-04-30T17:37:09;7.53;;;4.07;;
55346;SDS011;41218;55.700;38.270;2023-04-30T17:42:09;6.83;;;3.77;;
55346;SDS011;41218;55.700;38.270;2023-04-30T17:47:10;6.50;;;4.00;;
55346;SDS011;41218;55.700;38.270;2023-04-30T17:52:10;9.20;;;4.53;;
55346;SDS011;41218;55.700;38.270;2023-04-30T17:57:11;9.87;;;4.60;;
55346;SDS011;41218;55.700;38.270;2023-04-30T18:02:11;8.00;;;4.07;;
55346;SDS011;41218;55.700;38.270;2023-04-30T18:07:12;7.97;;;4.13;;
55346;SDS011;41218;55.700;38.270;2023-04-30T18:12:13;9.03;;;4.70;;
55346;SDS011;41218;55.700;38.270;2023-04-30T18:17:13;7.68;;;3.83;;
55346;SDS011;41218;55.700;38.270;2023-04-30T18:22:14;8.40;;;4.23;;
55346;SDS011;41218;55.700;38.270;2023-04-30T18:27:14;7.83;;;4.13;;
55346;SDS011;41218;55.700;38.270;2023-04-30T18:32:15;7.40;;;4.00;;
55346;SDS011;41218;55.700;38.270;2023-04-30T18:37:16;8.45;;;4.13;;
55346;SDS011;41218;55.700;38.270;2023-04-30T18:42:17;7.17;;;4.00;;
55346;SDS011;41218;55.700;38.270;2023-04-30T18:47:17;6.43;;;3.57;;
55346;SDS011;41218;55.700;38.270;2023-04-30T18:52:18;9.57;;;3.83;;
55346;SDS011;41218;55.700;38.270;2023-04-30T18:57:18;5.80;;;3.30;;
55346;SDS011;41218;55.700;38.270;2023-04-30T19:02:19;4.17;;;2.70;;
55346;SDS011;41218;55.700;38.270;2023-04-30T19:07:20;6.18;;;3.40;;
55346;SDS011;41218;55.700;38.270;2023-04-30T19:12:21;6.30;;;3.17;;
55346;SDS011;41218;55.700;38.270;2023-04-30T19:17:21;6.57;;;3.53;;
55346;SDS011;41218;55.700;38.270;2023-04-30T19:22:22;7.03;;;3.30;;
55346;SDS011;41218;55.700;38.270;2023-04-30T19:27:23;8.33;;;3.43;;
55346;SDS011;41218;55.700;38.270;2023-04-30T19:32:24;4.85;;;3.10;;
55346;SDS011;41218;55.700;38.270;2023-04-30T19:37:25;4.97;;;2.90;;
55346;SDS011;41218;55.700;38.270;2023-04-30T19:42:25;8.77;;;3.10;;
55346;SDS011;41218;55.700;38.270;2023-04-30T19:47:26;6.03;;;3.23;;
55346;SDS011;41218;55.700;38.270;2023-04-30T19:52:26;6.33;;;3.00;;
55346;SDS011;41218;55.700;38.270;2023-04-30T19:57:27;5.97;;;2.97;;
55346;SDS011;41218;55.700;38.270;2023-04-30T20:02:32;5.80;;;3.20;;
55346;SDS011;41218;55.700;38.270;2023-04-30T20:07:32;7.37;;;3.20;;
55346;SDS011;41218;55.700;38.270;2023-04-30T20:12:33;6.97;;;3.50;;
55346;SDS011;41218;55.700;38.270;2023-04-30T20:17:33;4.83;;;3.37;;
55346;SDS011;41218;55.700;38.270;2023-04-30T20:27:35;5.60;;;2.87;;
55346;SDS011;41218;55.700;38.270;2023-04-30T20:32:36;7.10;;;3.60;;
55346;SDS011;41218;55.700;38.270;2023-04-30T20:37:37;8.30;;;3.85;;
55346;SDS011;41218;55.700;38.270;2023-04-30T20:42:38;9.13;;;5.10;;
55346;SDS011;41218;55.700;38.270;2023-04-30T20:47:39;13.73;;;6.97;;
55346;SDS011;41218;55.700;38.270;2023-04-30T20:52:40;14.10;;;7.47;;
55346;SDS011;41218;55.700;38.270;2023-04-30T20:57:40;19.17;;;9.20;;
55346;SDS011;41218;55.700;38.270;2023-04-30T21:02:41;21.37;;;10.10;;
55346;SDS011;41218;55.700;38.270;2023-04-30T21:07:41;22.80;;;10.43;;
55346;SDS011;41218;55.700;38.270;2023-04-30T21:12:42;22.10;;;11.17;;
55346;SDS011;41218;55.700;38.270;2023-04-30T21:17:43;23.30;;;13.23;;
55346;SDS011;41218;55.700;38.270;2023-04-30T21:22:43;23.07;;;12.50;;
55346;SDS011;41218;55.700;38.270;2023-04-30T21:27:44;20.73;;;11.48;;
55346;SDS011;41218;55.700;38.270;2023-04-30T21:32:45;20.13;;;10.93;;
55346;SDS011;41218;55.700;38.270;2023-04-30T21:37:48;19.10;;;10.32;;
55346;SDS011;41218;55.700;38.270;2023-04-30T21:42:49;17.30;;;9.75;;
55346;SDS011;41218;55.700;38.270;2023-04-30T21:47:51;19.10;;;8.82;;
55346;SDS011;41218;55.700;38.270;2023-04-30T21:52:52;11.53;;;6.90;;
55346;SDS011;41218;55.700;38.270;2023-04-30T21:57:52;10.73;;;5.77;;
55346;SDS011;41218;55.700;38.270;2023-04-30T22:02:53;8.70;;;5.37;;
55346;SDS011;41218;55.700;38.270;2023-04-30T22:07:53;9.10;;;5.20;;
55346;SDS011;41218;55.700;38.270;2023-04-30T22:12:54;7.83;;;4.70;;
55346;SDS011;41218;55.700;38.270;2023-04-30T22:17:54;8.50;;;5.07;;
55346;SDS011;41218;55.700;38.270;2023-04-30T22:22:55;7.07;;;4.63;;
55346;SDS011;41218;55.700;38.270;2023-04-30T22:27:56;6.03;;;4.18;;
55346;SDS011;41218;55.700;38.270;2023-04-30T22:32:56;6.27;;;3.87;;
55346;SDS011;41218;55.700;38.270;2023-04-30T22:42:59;4.40;;;2.92;;
55346;SDS011;41218;55.700;38.270;2023-04-30T22:48:00;6.45;;;3.10;;
55346;SDS011;41218;55.700;38.270;2023-04-30T22:53:01;5.20;;;2.78;;
55346;SDS011;41218;55.700;38.270;2023-04-30T22:58:02;6.87;;;2.50;;
55346;SDS011;41218;55.700;38.270;2023-04-30T23:03:03;4.10;;;2.60;;
55346;SDS011;41218;55.700;38.270;2023-04-30T23:08:03;4.47;;;2.63;;
55346;SDS011;41218;55.700;38.270;2023-04-30T23:13:04;5.13;;;3.20;;
55346;SDS011;41218;55.700;38.270;2023-04-30T23:18:04;5.67;;;3.03;;
55346;SDS011;41218;55.700;38.270;2023-04-30T23:23:05;5.87;;;3.47;;
55346;SDS011;41218;55.700;38.270;2023-04-30T23:28:06;4.77;;;2.97;;
55346;SDS011;41218;55.700;38.270;2023-04-30T23:33:06;4.60;;;2.77;;
55346;SDS011;41218;55.700;38.270;2023-04-30T23:38:07;4.47;;;2.77;;
55346;SDS011;41218;55.700;38.270;2023-04-30T23:43:08;4.22;;;2.80;;
55346;SDS011;41218;55.700;38.270;2023-04-30T23:48:09;3.78;;;2.70;;
55346;SDS011;41218;55.700;38.270;2023-04-30T23:53:10;4.17;;;2.43;;
55346;SDS011;41218;55.700;38.270;2023-04-30T23:58:11;6.60;;;3.20;;
